Anderson Township, OH

5:17 PM EST on January 26, 2015 (GMT -0500)
APRSWXNET Cincinnati OH US | Change Station
CLOSE
Current Station
Personal Weather Station
Location: Anderson, OH
Elevation: 862 ft
Nearby Weather Stations

Elev 862 ft 39.09 °N, 84.33 °W | Updated 56 minutes ago

Clear
Clear
28 °F
Feels Like 23 °F
N
4
Wind Variable Wind from NW
Gusts 12.0 mph

Today
High -- | Low -- °F
--% Chance of Precip.
Yesterday
High -- | Low -- °F
Precip. -- in
7:49 AM 5:51 PM
Waxing Crescent, 47% visible
Pressure 29.95 in
Visibility 10.0 miles
Clouds Clear
Windchill 23 °F
Dew Point 19 °F
Humidity 69%
Rainfall 0.38 in
Snow Depth Not available.
UV 0 out of 12
Pollen .10 out of 12
Air Quality Not available.
Flu Activity Not available.
METAR KLUK 262153Z 34006KT 10SM CLR M02/M08 A2993 RMK AO2 SLP142 T10171078

More Conditions Fewer Conditions

Pressure 29.95 in
Visibility 10.0 miles
Clouds Clear
Windchill 23 °F
Dew Point 19 °F
Humidity 69%
Rainfall 0.38 in
Snow Depth Not available.
UV 0 out of 12
Pollen .10 out of 12
Air Quality Not available.
Flu Activity Not available.
METAR KLUK 262153Z 34006KT 10SM CLR M02/M08 A2993 RMK AO2 SLP142 T10171078

More Conditions Fewer Conditions

10-Day Weather Forecast

Almanac

Astronomy

Jan. 26, 2015 Rise Set
Actual Time
Civil Twilight
Nautical Twilight
Astronomical Twilight
Moon
Length of Visible Light
Length of Day
Tomorrow will be .
, % of the Moon is Illuminated

Today's Extremes

State Highs State Lows

Community

WunderPhotos

Upload Photos

1,790,379 photos uploaded!

WunderBlogs® & News

Nearby

Air Quality

  Air Quality AQ Index Pollutant
Not available.

Snow Depth

Station Depth Elevation

Earthquake Activity

City Distance Mag. Time & Date
Minimum magnitude displayed is 2.5.

Coastal Water Temperatures

Place Temperature

Nearby Weather Stations